sensor_id;sensor_type;location;lat;lon;timestamp;pressure;altitude;pressure_sealevel;temperature;humidity
77003;BME280;65939;50.060;14.288;2024-02-28T00:01:11;97140.19;;;5.01;100.00
77003;BME280;65939;50.060;14.288;2024-02-28T00:03:12;97139.53;;;4.99;100.00
77003;BME280;65939;50.060;14.288;2024-02-28T00:05:13;97148.91;;;5.00;100.00
77003;BME280;65939;50.060;14.288;2024-02-28T00:07:13;97140.19;;;5.01;100.00
77003;BME280;65939;50.060;14.288;2024-02-28T00:09:14;97149.63;;;5.02;100.00
77003;BME280;65939;50.060;14.288;2024-02-28T00:11:15;97155.22;;;5.07;100.00
77003;BME280;65939;50.060;14.288;2024-02-28T00:13:15;97152.78;;;5.06;100.00
77003;BME280;65939;50.060;14.288;2024-02-28T00:15:16;97151.69;;;5.08;100.00
77003;BME280;65939;50.060;14.288;2024-02-28T00:17:17;97161.78;;;5.11;100.00
77003;BME280;65939;50.060;14.288;2024-02-28T00:19:18;97159.22;;;5.11;100.00
77003;BME280;65939;50.060;14.288;2024-02-28T00:21:20;97156.06;;;5.08;100.00
77003;BME280;65939;50.060;14.288;2024-02-28T00:23:21;97153.59;;;5.06;100.00
77003;BME280;65939;50.060;14.288;2024-02-28T00:25:21;97150.06;;;5.07;100.00
77003;BME280;65939;50.060;14.288;2024-02-28T00:27:22;97151.94;;;5.05;100.00
77003;BME280;65939;50.060;14.288;2024-02-28T00:29:23;97149.34;;;5.05;100.00
77003;BME280;65939;50.060;14.288;2024-02-28T00:31:23;97151.94;;;5.05;100.00
77003;BME280;65939;50.060;14.288;2024-02-28T00:33:24;97157.09;;;5.05;100.00
77003;BME280;65939;50.060;14.288;2024-02-28T00:35:25;97153.34;;;5.09;100.00
77003;BME280;65939;50.060;14.288;2024-02-28T00:37:26;97151.69;;;5.08;100.00
77003;BME280;65939;50.060;14.288;2024-02-28T00:39:26;97148.19;;;5.09;100.00
77003;BME280;65939;50.060;14.288;2024-02-28T00:41:27;97148.03;;;5.11;100.00
77003;BME280;65939;50.060;14.288;2024-02-28T00:43:28;97146.66;;;5.07;100.00
77003;BME280;65939;50.060;14.288;2024-02-28T00:45:28;97140.19;;;5.01;100.00
77003;BME280;65939;50.060;14.288;2024-02-28T00:47:29;97145.91;;;4.95;100.00
77003;BME280;65939;50.060;14.288;2024-02-28T00:49:30;97148.47;;;4.95;100.00
77003;BME280;65939;50.060;14.288;2024-02-28T00:51:31;97147.38;;;4.97;100.00
77003;BME280;65939;50.060;14.288;2024-02-28T00:53:31;97149.06;;;4.98;100.00
77003;BME280;65939;50.060;14.288;2024-02-28T00:55:32;97145.75;;;4.96;100.00
77003;BME280;65939;50.060;14.288;2024-02-28T00:57:33;97142.34;;;4.96;100.00
77003;BME280;65939;50.060;14.288;2024-02-28T00:59:33;97146.56;;;4.97;100.00
77003;BME280;65939;50.060;14.288;2024-02-28T01:01:34;97146.56;;;4.97;100.00
77003;BME280;65939;50.060;14.288;2024-02-28T01:03:35;97147.38;;;4.97;100.00
77003;BME280;65939;50.060;14.288;2024-02-28T01:05:35;97154.34;;;4.97;100.00
77003;BME280;65939;50.060;14.288;2024-02-28T01:07:36;97158.56;;;4.98;100.00
77003;BME280;65939;50.060;14.288;2024-02-28T01:09:37;97149.88;;;4.99;100.00
77003;BME280;65939;50.060;14.288;2024-02-28T01:11:38;97149.63;;;5.02;100.00
77003;BME280;65939;50.060;14.288;2024-02-28T01:13:38;97153.38;;;4.98;100.00
77003;BME280;65939;50.060;14.288;2024-02-28T01:15:40;97147.28;;;4.99;100.00
77003;BME280;65939;50.060;14.288;2024-02-28T01:17:42;97154.09;;;5.00;100.00
77003;BME280;65939;50.060;14.288;2024-02-28T01:19:42;97155.16;;;4.97;100.00
77003;BME280;65939;50.060;14.288;2024-02-28T01:21:43;97153.13;;;5.01;100.00
77003;BME280;65939;50.060;14.288;2024-02-28T01:23:44;97157.63;;;4.99;100.00
77003;BME280;65939;50.060;14.288;2024-02-28T01:25:44;97158.44;;;4.99;100.00
77003;BME280;65939;50.060;14.288;2024-02-28T01:27:45;97153.38;;;4.98;100.00
77003;BME280;65939;50.060;14.288;2024-02-28T01:29:46;97163.03;;;4.96;100.00
77003;BME280;65939;50.060;14.288;2024-02-28T01:31:46;97161.41;;;4.95;100.00
77003;BME280;65939;50.060;14.288;2024-02-28T01:33:47;97164.81;;;4.95;100.00
77003;BME280;65939;50.060;14.288;2024-02-28T01:35:48;97163.03;;;4.96;100.00
77003;BME280;65939;50.060;14.288;2024-02-28T01:37:48;97155.28;;;4.96;100.00
77003;BME280;65939;50.060;14.288;2024-02-28T01:39:49;97163.03;;;4.96;100.00
77003;BME280;65939;50.060;14.288;2024-02-28T01:41:53;97159.50;;;4.97;100.00
77003;BME280;65939;50.060;14.288;2024-02-28T01:43:54;97167.66;;;4.92;100.00
77003;BME280;65939;50.060;14.288;2024-02-28T01:45:56;97172.81;;;4.92;100.00
77003;BME280;65939;50.060;14.288;2024-02-28T01:47:57;97172.56;;;4.95;100.00
77003;BME280;65939;50.060;14.288;2024-02-28T01:49:58;97164.00;;;4.95;100.00
77003;BME280;65939;50.060;14.288;2024-02-28T01:51:59;97168.22;;;4.96;100.00
77003;BME280;65939;50.060;14.288;2024-02-28T01:53:59;97167.41;;;4.95;100.00
77003;BME280;65939;50.060;14.288;2024-02-28T01:56:01;97168.47;;;4.93;100.00
77003;BME280;65939;50.060;14.288;2024-02-28T01:58:04;97171.28;;;4.90;100.00
77003;BME280;65939;50.060;14.288;2024-02-28T02:00:08;97172.34;;;4.87;100.00
77003;BME280;65939;50.060;14.288;2024-02-28T02:02:08;97174.13;;;4.87;100.00
77003;BME280;65939;50.060;14.288;2024-02-28T02:04:09;97174.84;;;4.89;100.00
77003;BME280;65939;50.060;14.288;2024-02-28T02:06:10;97170.22;;;4.92;100.00
77003;BME280;65939;50.060;14.288;2024-02-28T02:08:11;97172.69;;;4.94;100.00
77003;BME280;65939;50.060;14.288;2024-02-28T02:10:12;97166.59;;;4.95;100.00
77003;BME280;65939;50.060;14.288;2024-02-28T02:12:13;97159.50;;;4.97;100.00
77003;BME280;65939;50.060;14.288;2024-02-28T02:14:14;97162.66;;;5.00;100.00
77003;BME280;65939;50.060;14.288;2024-02-28T02:16:14;97162.56;;;5.02;100.00
77003;BME280;65939;50.060;14.288;2024-02-28T02:18:15;97157.97;;;5.06;100.00
77003;BME280;65939;50.060;14.288;2024-02-28T02:20:17;97163.72;;;5.09;100.00
77003;BME280;65939;50.060;14.288;2024-02-28T02:22:21;97157.44;;;5.12;100.00
77003;BME280;65939;50.060;14.288;2024-02-28T02:24:23;97162.38;;;5.15;100.00
77003;BME280;65939;50.060;14.288;2024-02-28T02:26:24;97165.78;;;5.15;100.00
77003;BME280;65939;50.060;14.288;2024-02-28T02:28:24;97173.53;;;5.15;100.00
77003;BME280;65939;50.060;14.288;2024-02-28T02:30:25;97176.13;;;5.15;100.00
77003;BME280;65939;50.060;14.288;2024-02-28T02:32:26;97182.00;;;5.17;100.00
77003;BME280;65939;50.060;14.288;2024-02-28T02:34:26;97186.22;;;5.18;100.00
77003;BME280;65939;50.060;14.288;2024-02-28T02:36:27;97187.28;;;5.16;100.00
77003;BME280;65939;50.060;14.288;2024-02-28T02:38:28;97184.59;;;5.17;100.00
77003;BME280;65939;50.060;14.288;2024-02-28T02:40:28;97179.19;;;5.20;100.00
77003;BME280;65939;50.060;14.288;2024-02-28T02:42:29;97184.22;;;5.22;100.00
77003;BME280;65939;50.060;14.288;2024-02-28T02:44:30;97184.09;;;5.23;100.00
77003;BME280;65939;50.060;14.288;2024-02-28T02:46:30;97179.28;;;5.19;100.00
77003;BME280;65939;50.060;14.288;2024-02-28T02:48:31;97180.38;;;5.16;100.00
77003;BME280;65939;50.060;14.288;2024-02-28T02:50:31;97182.38;;;5.13;100.00
77003;BME280;65939;50.060;14.288;2024-02-28T02:52:32;97173.91;;;5.11;100.00
77003;BME280;65939;50.060;14.288;2024-02-28T02:54:33;97170.75;;;5.07;100.00
77003;BME280;65939;50.060;14.288;2024-02-28T02:56:34;97171.47;;;5.09;100.00
77003;BME280;65939;50.060;14.288;2024-02-28T02:58:34;97177.56;;;5.08;100.00
77003;BME280;65939;50.060;14.288;2024-02-28T03:00:35;97181.09;;;5.07;100.00
77003;BME280;65939;50.060;14.288;2024-02-28T03:02:36;97187.91;;;5.08;100.00
77003;BME280;65939;50.060;14.288;2024-02-28T03:04:40;97183.84;;;5.06;100.00
77003;BME280;65939;50.060;14.288;2024-02-28T03:06:41;97196.06;;;5.03;100.00
77003;BME280;65939;50.060;14.288;2024-02-28T03:08:42;97196.06;;;5.03;100.00
77003;BME280;65939;50.060;14.288;2024-02-28T03:10:42;97206.16;;;5.07;100.00
77003;BME280;65939;50.060;14.288;2024-02-28T03:12:43;97205.94;;;5.10;100.00
77003;BME280;65939;50.060;14.288;2024-02-28T03:14:44;97199.22;;;5.07;100.00
77003;BME280;65939;50.060;14.288;2024-02-28T03:16:44;97207.94;;;5.06;100.00
77003;BME280;65939;50.060;14.288;2024-02-28T03:18:45;97213.22;;;5.04;100.00
77003;BME280;65939;50.060;14.288;2024-02-28T03:20:46;97211.59;;;5.03;100.00
77003;BME280;65939;50.060;14.288;2024-02-28T03:22:46;97221.94;;;5.03;100.00
77003;BME280;65939;50.060;14.288;2024-02-28T03:24:47;97226.16;;;5.04;100.00
77003;BME280;65939;50.060;14.288;2024-02-28T03:26:48;97225.22;;;5.06;100.00
77003;BME280;65939;50.060;14.288;2024-02-28T03:28:49;97223.31;;;5.08;100.00
77003;BME280;65939;50.060;14.288;2024-02-28T03:30:50;97227.19;;;5.13;100.00
77003;BME280;65939;50.060;14.288;2024-02-28T03:32:50;97223.41;;;5.17;100.00
77003;BME280;65939;50.060;14.288;2024-02-28T03:34:51;97224.09;;;5.19;100.00
77003;BME280;65939;50.060;14.288;2024-02-28T03:36:52;97228.34;;;5.20;100.00
77003;BME280;65939;50.060;14.288;2024-02-28T03:38:52;97222.94;;;5.23;100.00
77003;BME280;65939;50.060;14.288;2024-02-28T03:40:53;97231.38;;;5.25;100.00
77003;BME280;65939;50.060;14.288;2024-02-28T03:42:54;97228.22;;;5.22;100.00
77003;BME280;65939;50.060;14.288;2024-02-28T03:44:54;97227.41;;;5.21;100.00
77003;BME280;65939;50.060;14.288;2024-02-28T03:46:55;97224.81;;;5.21;100.00
77003;BME280;65939;50.060;14.288;2024-02-28T03:48:56;97234.91;;;5.24;100.00
77003;BME280;65939;50.060;14.288;2024-02-28T03:50:56;97236.56;;;5.25;100.00
77003;BME280;65939;50.060;14.288;2024-02-28T03:52:57;97232.09;;;5.27;100.00
77003;BME280;65939;50.060;14.288;2024-02-28T03:54:58;97238.06;;;5.28;100.00
77003;BME280;65939;50.060;14.288;2024-02-28T03:56:58;97235.63;;;5.26;100.00
77003;BME280;65939;50.060;14.288;2024-02-28T03:58:59;97238.47;;;5.23;100.00
77003;BME280;65939;50.060;14.288;2024-02-28T04:01:00;97245.41;;;5.23;100.00
77003;BME280;65939;50.060;14.288;2024-02-28T04:03:01;97246.47;;;5.20;100.00
77003;BME280;65939;50.060;14.288;2024-02-28T04:05:02;97243.88;;;5.20;100.00
77003;BME280;65939;50.060;14.288;2024-02-28T04:07:04;97244.81;;;5.19;100.00
77003;BME280;65939;50.060;14.288;2024-02-28T04:09:05;97246.81;;;5.16;100.00
77003;BME280;65939;50.060;14.288;2024-02-28T04:11:05;97254.84;;;5.13;100.00
77003;BME280;65939;50.060;14.288;2024-02-28T04:13:06;97252.50;;;5.10;100.00
77003;BME280;65939;50.060;14.288;2024-02-28T04:15:07;97252.75;;;5.07;100.00
77003;BME280;65939;50.060;14.288;2024-02-28T04:17:08;97253.13;;;5.02;100.00
77003;BME280;65939;50.060;14.288;2024-02-28T04:19:08;97266.06;;;5.02;100.00
77003;BME280;65939;50.060;14.288;2024-02-28T04:21:09;97261.13;;;4.99;100.00
77003;BME280;65939;50.060;14.288;2024-02-28T04:23:10;97263.81;;;4.97;100.00
77003;BME280;65939;50.060;14.288;2024-02-28T04:25:10;97260.41;;;4.97;100.00
77003;BME280;65939;50.060;14.288;2024-02-28T04:27:11;97262.16;;;4.96;100.00
77003;BME280;65939;50.060;14.288;2024-02-28T04:29:12;97269.22;;;4.94;100.00
77003;BME280;65939;50.060;14.288;2024-02-28T04:31:14;97280.66;;;4.92;100.00
77003;BME280;65939;50.060;14.288;2024-02-28T04:33:15;97278.75;;;4.94;100.00
77003;BME280;65939;50.060;14.288;2024-02-28T04:35:15;97281.34;;;4.94;100.00
77003;BME280;65939;50.060;14.288;2024-02-28T04:37:18;97280.66;;;4.92;100.00
77003;BME280;65939;50.060;14.288;2024-02-28T04:39:19;97285.81;;;4.92;100.00
77003;BME280;65939;50.060;14.288;2024-02-28T04:41:20;97284.88;;;4.93;100.00
77003;BME280;65939;50.060;14.288;2024-02-28T04:43:20;97291.91;;;4.91;100.00
77003;BME280;65939;50.060;14.288;2024-02-28T04:45:21;97294.28;;;4.94;100.00
77003;BME280;65939;50.060;14.288;2024-02-28T04:47:22;97285.31;;;4.98;100.00
77003;BME280;65939;50.060;14.288;2024-02-28T04:49:23;97285.31;;;4.98;100.00
77003;BME280;65939;50.060;14.288;2024-02-28T04:51:24;97276.63;;;4.99;100.00
77003;BME280;65939;50.060;14.288;2024-02-28T04:53:24;97288.38;;;5.03;100.00
77003;BME280;65939;50.060;14.288;2024-02-28T04:55:25;97286.47;;;5.05;100.00
77003;BME280;65939;50.060;14.288;2024-02-28T04:57:26;97276.97;;;5.06;100.00
77003;BME280;65939;50.060;14.288;2024-02-28T04:59:26;97279.44;;;5.07;100.00
77003;BME280;65939;50.060;14.288;2024-02-28T05:01:27;97285.66;;;5.04;100.00
77003;BME280;65939;50.060;14.288;2024-02-28T05:03:28;97288.16;;;5.06;100.00
77003;BME280;65939;50.060;14.288;2024-02-28T05:05:29;97291.56;;;5.07;100.00
77003;BME280;65939;50.060;14.288;2024-02-28T05:07:30;97289.41;;;5.12;100.00
77003;BME280;65939;50.060;14.288;2024-02-28T05:09:30;97300.91;;;5.19;100.00
77003;BME280;65939;50.060;14.288;2024-02-28T05:11:31;97296.47;;;5.21;100.00
77003;BME280;65939;50.060;14.288;2024-02-28T05:13:32;97294.81;;;5.20;100.00
77003;BME280;65939;50.060;14.288;2024-02-28T05:15:33;97289.66;;;5.20;100.00
77003;BME280;65939;50.060;14.288;2024-02-28T05:17:33;97287.75;;;5.22;100.00
77003;BME280;65939;50.060;14.288;2024-02-28T05:19:34;97293.16;;;5.19;100.00
77003;BME280;65939;50.060;14.288;2024-02-28T05:21:42;97299.28;;;5.18;100.00
77003;BME280;65939;50.060;14.288;2024-02-28T05:23:43;97301.06;;;5.17;100.00
77003;BME280;65939;50.060;14.288;2024-02-28T05:25:43;97304.84;;;5.13;100.00
77003;BME280;65939;50.060;14.288;2024-02-28T05:27:44;97303.06;;;5.14;100.00
77003;BME280;65939;50.060;14.288;2024-02-28T05:29:45;97304.00;;;5.13;100.00
77003;BME280;65939;50.060;14.288;2024-02-28T05:31:45;97305.66;;;5.14;100.00
77003;BME280;65939;50.060;14.288;2024-02-28T05:33:46;97305.88;;;5.11;100.00
77003;BME280;65939;50.060;14.288;2024-02-28T05:35:47;97319.78;;;5.10;100.00
77003;BME280;65939;50.060;14.288;2024-02-28T05:37:47;97311.19;;;5.09;100.00
77003;BME280;65939;50.060;14.288;2024-02-28T05:39:48;97314.59;;;5.10;100.00
77003;BME280;65939;50.060;14.288;2024-02-28T05:41:48;97331.91;;;5.09;100.00
77003;BME280;65939;50.060;14.288;2024-02-28T05:43:50;97324.94;;;5.10;100.00
77003;BME280;65939;50.060;14.288;2024-02-28T05:45:51;97326.72;;;5.09;100.00
77003;BME280;65939;50.060;14.288;2024-02-28T05:47:52;97330.81;;;5.12;100.00
77003;BME280;65939;50.060;14.288;2024-02-28T05:49:52;97332.59;;;5.11;100.00
77003;BME280;65939;50.060;14.288;2024-02-28T05:51:56;97335.06;;;5.13;100.00
77003;BME280;65939;50.060;14.288;2024-02-28T05:53:56;97348.00;;;5.13;100.00
77003;BME280;65939;50.060;14.288;2024-02-28T05:55:57;97348.00;;;5.13;100.00
77003;BME280;65939;50.060;14.288;2024-02-28T05:57:58;97351.41;;;5.13;100.00
77003;BME280;65939;50.060;14.288;2024-02-28T05:59:59;97353.53;;;5.08;99.97
77003;BME280;65939;50.060;14.288;2024-02-28T06:02:00;97348.47;;;5.07;100.00
77003;BME280;65939;50.060;14.288;2024-02-28T06:04:00;97360.59;;;5.06;100.00
77003;BME280;65939;50.060;14.288;2024-02-28T06:06:02;97355.41;;;5.06;100.00
77003;BME280;65939;50.060;14.288;2024-02-28T06:08:05;97363.88;;;5.08;100.00
77003;BME280;65939;50.060;14.288;2024-02-28T06:10:06;97365.28;;;5.12;100.00
77003;BME280;65939;50.060;14.288;2024-02-28T06:12:07;97365.03;;;5.15;100.00
77003;BME280;65939;50.060;14.288;2024-02-28T06:14:08;97368.09;;;5.20;100.00
77003;BME280;65939;50.060;14.288;2024-02-28T06:16:15;97366.19;;;5.22;99.61
77003;BME280;65939;50.060;14.288;2024-02-28T06:18:18;97376.78;;;5.19;100.00
77003;BME280;65939;50.060;14.288;2024-02-28T06:20:18;97382.56;;;5.23;99.41
77003;BME280;65939;50.060;14.288;2024-02-28T06:22:19;97380.91;;;5.22;99.66
77003;BME280;65939;50.060;14.288;2024-02-28T06:24:20;97380.91;;;5.22;99.65
77003;BME280;65939;50.060;14.288;2024-02-28T06:26:21;97379.72;;;5.26;100.00
77003;BME280;65939;50.060;14.288;2024-02-28T06:28:21;97379.50;;;5.29;100.00
77003;BME280;65939;50.060;14.288;2024-02-28T06:30:22;97379.25;;;5.32;100.00
77003;BME280;65939;50.060;14.288;2024-02-28T06:32:24;97379.00;;;5.35;99.54
77003;BME280;65939;50.060;14.288;2024-02-28T06:34:25;97377.25;;;5.36;99.88
77003;BME280;65939;50.060;14.288;2024-02-28T06:36:26;97380.56;;;5.38;99.20
77003;BME280;65939;50.060;14.288;2024-02-28T06:38:26;97380.03;;;5.44;98.97
77003;BME280;65939;50.060;14.288;2024-02-28T06:40:27;97378.75;;;5.49;99.22
77003;BME280;65939;50.060;14.288;2024-02-28T06:42:29;97378.38;;;5.54;98.35
77003;BME280;65939;50.060;14.288;2024-02-28T06:44:29;97380.84;;;5.56;98.96
77003;BME280;65939;50.060;14.288;2024-02-28T06:46:30;97378.03;;;5.59;98.11
77003;BME280;65939;50.060;14.288;2024-02-28T06:48:31;97385.91;;;5.57;97.61
77003;BME280;65939;50.060;14.288;2024-02-28T06:50:31;97384.28;;;5.56;98.12
77003;BME280;65939;50.060;14.288;2024-02-28T06:52:33;97381.44;;;5.59;98.08
77003;BME280;65939;50.060;14.288;2024-02-28T06:54:35;97382.84;;;5.63;96.75
77003;BME280;65939;50.060;14.288;2024-02-28T06:56:35;97393.19;;;5.63;96.81
77003;BME280;65939;50.060;14.288;2024-02-28T06:58:36;97395.88;;;5.62;96.74
77003;BME280;65939;50.060;14.288;2024-02-28T07:00:37;97393.19;;;5.63;96.49
77003;BME280;65939;50.060;14.288;2024-02-28T07:02:38;97398.25;;;5.65;96.50
77003;BME280;65939;50.060;14.288;2024-02-28T07:04:38;97394.59;;;5.67;96.70
77003;BME280;65939;50.060;14.288;2024-02-28T07:06:41;97394.44;;;5.69;96.77
77003;BME280;65939;50.060;14.288;2024-02-28T07:08:42;97395.97;;;5.71;96.11
77003;BME280;65939;50.060;14.288;2024-02-28T07:10:42;97400.94;;;5.74;95.98
77003;BME280;65939;50.060;14.288;2024-02-28T07:12:44;97406.81;;;5.76;95.76
77003;BME280;65939;50.060;14.288;2024-02-28T07:14:45;97411.03;;;5.78;95.51
77003;BME280;65939;50.060;14.288;2024-02-28T07:16:45;97409.75;;;5.72;95.63
77003;BME280;65939;50.060;14.288;2024-02-28T07:18:46;97416.13;;;5.68;95.50
77003;BME280;65939;50.060;14.288;2024-02-28T07:20:47;97411.19;;;5.65;95.84
77003;BME280;65939;50.060;14.288;2024-02-28T07:22:47;97411.09;;;5.66;96.41
77003;BME280;65939;50.060;14.288;2024-02-28T07:24:48;97416.94;;;5.68;95.55
77003;BME280;65939;50.060;14.288;2024-02-28T07:26:49;97422.84;;;5.70;96.48
77003;BME280;65939;50.060;14.288;2024-02-28T07:28:51;97416.91;;;5.80;95.94
77003;BME280;65939;50.060;14.288;2024-02-28T07:30:52;97422.91;;;5.91;96.49
77003;BME280;65939;50.060;14.288;2024-02-28T07:32:52;97420.16;;;6.04;95.88
77003;BME280;65939;50.060;14.288;2024-02-28T07:34:53;97429.53;;;6.16;95.26
77003;BME280;65939;50.060;14.288;2024-02-28T07:36:53;97425.75;;;6.20;94.90
77003;BME280;65939;50.060;14.288;2024-02-28T07:38:54;97426.09;;;6.27;94.64
77003;BME280;65939;50.060;14.288;2024-02-28T07:40:55;97427.47;;;6.31;93.67
77003;BME280;65939;50.060;14.288;2024-02-28T07:42:55;97426.84;;;6.39;94.42
77003;BME280;65939;50.060;14.288;2024-02-28T07:44:56;97424.81;;;6.42;92.62
77003;BME280;65939;50.060;14.288;2024-02-28T07:46:59;97425.13;;;6.49;93.46
77003;BME280;65939;50.060;14.288;2024-02-28T07:49:00;97433.00;;;6.59;92.41
77003;BME280;65939;50.060;14.288;2024-02-28T07:51:06;97434.22;;;6.64;91.93
77003;BME280;65939;50.060;14.288;2024-02-28T07:53:06;97442.47;;;6.69;91.48
77003;BME280;65939;50.060;14.288;2024-02-28T07:55:07;97442.91;;;6.75;91.09
77003;BME280;65939;50.060;14.288;2024-02-28T07:57:08;97443.84;;;6.74;90.59
77003;BME280;65939;50.060;14.288;2024-02-28T07:59:09;97443.41;;;6.68;90.50
77003;BME280;65939;50.060;14.288;2024-02-28T08:01:10;97448.72;;;6.67;90.87
77003;BME280;65939;50.060;14.288;2024-02-28T08:03:11;97454.75;;;6.67;89.88
77003;BME280;65939;50.060;14.288;2024-02-28T08:05:12;97449.69;;;6.66;89.95
77003;BME280;65939;50.060;14.288;2024-02-28T08:07:13;97459.75;;;6.59;89.90
77003;BME280;65939;50.060;14.288;2024-02-28T08:09:13;97458.09;;;6.58;90.28
77003;BME280;65939;50.060;14.288;2024-02-28T08:11:15;97464.47;;;6.54;89.35
77003;BME280;65939;50.060;14.288;2024-02-28T08:13:16;97469.09;;;6.51;90.33
77003;BME280;65939;50.060;14.288;2024-02-28T08:15:17;97473.69;;;6.47;89.83
77003;BME280;65939;50.060;14.288;2024-02-28T08:17:17;97468.09;;;6.42;90.53
77003;BME280;65939;50.060;14.288;2024-02-28T08:19:18;97469.28;;;6.38;90.57
77003;BME280;65939;50.060;14.288;2024-02-28T08:21:19;97476.34;;;6.36;90.86
77003;BME280;65939;50.060;14.288;2024-02-28T08:23:20;97480.16;;;6.32;90.05
77003;BME280;65939;50.060;14.288;2024-02-28T08:25:21;97478.03;;;6.26;91.31
77003;BME280;65939;50.060;14.288;2024-02-28T08:27:21;97485.47;;;6.19;91.49
77003;BME280;65939;50.060;14.288;2024-02-28T08:29:23;97491.53;;;6.08;91.50
77003;BME280;65939;50.060;14.288;2024-02-28T08:31:24;97485.53;;;6.08;92.14
77003;BME280;65939;50.060;14.288;2024-02-28T08:33:25;97496.03;;;6.06;92.30
77003;BME280;65939;50.060;14.288;2024-02-28T08:35:25;97489.44;;;6.02;91.78
77003;BME280;65939;50.060;14.288;2024-02-28T08:37:27;97491.91;;;6.04;92.40
77003;BME280;65939;50.060;14.288;2024-02-28T08:39:29;97491.22;;;6.02;92.42
77003;BME280;65939;50.060;14.288;2024-02-28T08:41:31;97489.69;;;5.99;92.59
77003;BME280;65939;50.060;14.288;2024-02-28T08:43:37;97498.16;;;6.01;92.86
77003;BME280;65939;50.060;14.288;2024-02-28T08:45:38;97504.28;;;6.00;91.92
77003;BME280;65939;50.060;14.288;2024-02-28T08:47:38;97502.50;;;6.00;92.51
77003;BME280;65939;50.060;14.288;2024-02-28T08:49:39;97495.69;;;5.99;92.56
77003;BME280;65939;50.060;14.288;2024-02-28T08:51:40;97494.16;;;5.97;92.09
77003;BME280;65939;50.060;14.288;2024-02-28T08:53:41;97502.88;;;5.96;92.40
77003;BME280;65939;50.060;14.288;2024-02-28T08:55:41;97506.53;;;5.93;91.74
77003;BME280;65939;50.060;14.288;2024-02-28T08:57:42;97512.19;;;5.98;93.06
77003;BME280;65939;50.060;14.288;2024-02-28T08:59:43;97508.66;;;5.99;92.22
77003;BME280;65939;50.060;14.288;2024-02-28T09:01:43;97515.38;;;6.02;93.31
77003;BME280;65939;50.060;14.288;2024-02-28T09:03:44;97512.41;;;6.07;92.98
77003;BME280;65939;50.060;14.288;2024-02-28T09:05:45;97512.84;;;6.12;93.49
77003;BME280;65939;50.060;14.288;2024-02-28T09:07:45;97516.97;;;6.14;93.25
77003;BME280;65939;50.060;14.288;2024-02-28T09:09:51;97511.16;;;6.22;93.42
77003;BME280;65939;50.060;14.288;2024-02-28T09:11:52;97511.63;;;6.27;93.38
77003;BME280;65939;50.060;14.288;2024-02-28T09:13:52;97505.84;;;6.35;91.99
77003;BME280;65939;50.060;14.288;2024-02-28T09:15:53;97515.97;;;6.38;92.26
77003;BME280;65939;50.060;14.288;2024-02-28T09:17:54;97507.47;;;6.36;91.77
77003;BME280;65939;50.060;14.288;2024-02-28T09:19:54;97513.63;;;6.35;91.73
77003;BME280;65939;50.060;14.288;2024-02-28T09:21:55;97508.41;;;6.35;91.09
77003;BME280;65939;50.060;14.288;2024-02-28T09:23:56;97512.41;;;6.39;91.45
77003;BME280;65939;50.060;14.288;2024-02-28T09:25:57;97513.56;;;6.46;91.59
77003;BME280;65939;50.060;14.288;2024-02-28T09:27:58;97515.19;;;6.47;90.47
77003;BME280;65939;50.060;14.288;2024-02-28T09:30:02;97513.69;;;6.44;91.26
77003;BME280;65939;50.060;14.288;2024-02-28T09:32:04;97519.47;;;6.48;90.97
77003;BME280;65939;50.060;14.288;2024-02-28T09:34:05;97515.91;;;6.49;91.27
77003;BME280;65939;50.060;14.288;2024-02-28T09:36:08;97517.53;;;6.50;91.31
77003;BME280;65939;50.060;14.288;2024-02-28T09:38:08;97517.53;;;6.50;90.65
77003;BME280;65939;50.060;14.288;2024-02-28T09:40:10;97525.78;;;6.55;91.33
77003;BME280;65939;50.060;14.288;2024-02-28T09:42:11;97524.59;;;6.59;90.16
77003;BME280;65939;50.060;14.288;2024-02-28T09:44:11;97534.84;;;6.61;90.54
77003;BME280;65939;50.060;14.288;2024-02-28T09:46:14;97520.09;;;6.61;89.68
77003;BME280;65939;50.060;14.288;2024-02-28T09:48:16;97523.38;;;6.63;89.93
77003;BME280;65939;50.060;14.288;2024-02-28T09:50:18;97523.72;;;6.70;89.92
77003;BME280;65939;50.060;14.288;2024-02-28T09:52:20;97529.34;;;6.75;90.59
77003;BME280;65939;50.060;14.288;2024-02-28T09:54:21;97534.03;;;6.81;91.17
77003;BME280;65939;50.060;14.288;2024-02-28T09:56:23;97540.50;;;6.87;90.79
77003;BME280;65939;50.060;14.288;2024-02-28T09:58:24;97533.28;;;6.90;90.06
77003;BME280;65939;50.060;14.288;2024-02-28T10:00:26;97545.06;;;6.94;90.17
77003;BME280;65939;50.060;14.288;2024-02-28T10:02:28;97533.16;;;6.92;89.06
77003;BME280;65939;50.060;14.288;2024-02-28T10:04:30;97544.59;;;6.89;89.37
77003;BME280;65939;50.060;14.288;2024-02-28T10:06:31;97542.56;;;6.93;89.28
77003;BME280;65939;50.060;14.288;2024-02-28T10:08:32;97551.75;;;6.97;88.51
77003;BME280;65939;50.060;14.288;2024-02-28T10:10:32;97548.81;;;7.02;88.39
77003;BME280;65939;50.060;14.288;2024-02-28T10:12:33;97546.06;;;7.03;88.60
77003;BME280;65939;50.060;14.288;2024-02-28T10:14:34;97548.72;;;7.13;87.81
77003;BME280;65939;50.060;14.288;2024-02-28T10:16:35;97550.19;;;7.27;88.55
77003;BME280;65939;50.060;14.288;2024-02-28T10:18:35;97551.66;;;7.29;87.47
77003;BME280;65939;50.060;14.288;2024-02-28T10:20:36;97553.66;;;7.37;87.78
77003;BME280;65939;50.060;14.288;2024-02-28T10:22:37;97563.66;;;7.41;88.59
77003;BME280;65939;50.060;14.288;2024-02-28T10:24:38;97553.97;;;7.53;88.72
77003;BME280;65939;50.060;14.288;2024-02-28T10:26:42;97551.59;;;7.61;88.29
77003;BME280;65939;50.060;14.288;2024-02-28T10:28:43;97551.75;;;7.70;86.73
77003;BME280;65939;50.060;14.288;2024-02-28T10:30:45;97554.91;;;7.73;85.66
77003;BME280;65939;50.060;14.288;2024-02-28T10:32:49;97557.63;;;7.72;86.26
77003;BME280;65939;50.060;14.288;2024-02-28T10:34:53;97543.81;;;7.71;86.51
77003;BME280;65939;50.060;14.288;2024-02-28T10:36:54;97558.72;;;7.79;85.71